Time;durP1;ratioP1;P1;durP2;ratioP2;P2;SDS_P1;SDS_P2;PMS_P1;PMS_P2;Temp;Humidity;BMP_temperature;BMP_pressure;BME280_temperature;BME280_humidity;BME280_pressure;Samples;Min_cycle;Max_cycle;Signal;HPM_P1;HPM_P2
2023/05/19 00:00:59;;;;;;;20.55;5.15;;;;;;;8.58;83.97;96766.00;5072021;28;20070;-77
2023/05/19 00:03:26;;;;;;;22.95;5.43;;;;;;;8.57;84.20;96771.75;5069199;28;20124;-75
2023/05/19 00:05:53;;;;;;;25.63;5.30;;;;;;;8.56;84.73;96761.97;5078964;28;20056;-77
2023/05/19 00:08:23;;;;;;;25.35;5.88;;;;;;;8.55;85.03;96761.16;5087612;28;20138;-77
2023/05/19 00:10:50;;;;;;;18.92;5.20;;;;;;;8.54;85.27;96756.84;5064391;28;20732;-76
2023/05/19 00:13:17;;;;;;;17.70;4.95;;;;;;;8.55;85.60;96750.28;5079440;28;20048;-77
2023/05/19 00:15:44;;;;;;;23.67;5.80;;;;;;;8.53;85.33;96744.38;5075171;28;20044;-76
2023/05/19 00:18:12;;;;;;;14.38;4.93;;;;;;;8.51;85.24;96751.19;5080143;28;20051;-78
2023/05/19 00:20:39;;;;;;;21.50;5.40;;;;;;;8.49;85.50;96754.19;5083558;28;20051;-77
2023/05/19 00:23:05;;;;;;;23.98;5.05;;;;;;;8.50;85.55;96744.94;5077892;28;20045;-78
2023/05/19 00:25:35;;;;;;;16.55;5.50;;;;;;;8.52;85.86;96744.66;5073727;28;20051;-78
2023/05/19 00:28:02;;;;;;;13.50;4.65;;;;;;;8.52;86.18;96742.75;5085025;28;20047;-79
2023/05/19 00:30:29;;;;;;;20.90;6.03;;;;;;;8.55;86.90;96739.44;5072339;28;20044;-77
2023/05/19 00:32:56;;;;;;;18.10;5.03;;;;;;;8.56;87.03;96742.94;5089283;28;20068;-78
2023/05/19 00:35:23;;;;;;;21.38;5.32;;;;;;;8.54;86.52;96735.13;5088129;28;20045;-77
2023/05/19 00:37:50;;;;;;;21.23;5.35;;;;;;;8.52;86.06;96734.63;5067947;28;20036;-77
2023/05/19 00:40:17;;;;;;;22.48;5.45;;;;;;;8.53;86.30;96733.50;5072251;28;20044;-77
2023/05/19 00:42:45;;;;;;;29.70;6.03;;;;;;;8.54;86.61;96737.03;5074086;28;20517;-77
2023/05/19 00:45:11;;;;;;;22.92;5.40;;;;;;;8.56;87.32;96732.94;5076944;28;20146;-77
2023/05/19 00:47:38;;;;;;;23.45;5.22;;;;;;;8.58;87.60;96729.91;5088719;28;20051;-78
2023/05/19 00:50:05;;;;;;;23.58;5.18;;;;;;;8.61;87.76;96726.59;5072285;28;20044;-78
2023/05/19 00:52:31;;;;;;;40.67;5.90;;;;;;;8.59;87.65;96721.47;5072698;28;20044;-77
2023/05/19 00:54:59;;;;;;;24.15;5.63;;;;;;;8.60;87.79;96723.06;5069696;28;20052;-77
2023/05/19 00:57:26;;;;;;;21.10;5.43;;;;;;;8.59;87.34;96716.03;5089393;28;20089;-77
2023/05/19 00:59:54;;;;;;;18.02;5.18;;;;;;;8.59;87.29;96710.59;5080331;28;20036;-77
2023/05/19 01:02:20;;;;;;;15.10;5.13;;;;;;;8.58;86.99;96714.44;5070965;28;20051;-78
2023/05/19 01:04:47;;;;;;;19.05;5.80;;;;;;;8.56;87.26;96711.22;5071805;28;20048;-77
2023/05/19 01:07:15;;;;;;;16.17;5.72;;;;;;;8.55;86.90;96704.16;5077360;28;20101;-77
2023/05/19 01:09:41;;;;;;;20.73;5.88;;;;;;;8.54;86.81;96701.75;5081695;28;20075;-77
2023/05/19 01:12:08;;;;;;;19.48;5.55;;;;;;;8.50;86.67;96701.50;5071845;28;20041;-77
2023/05/19 01:14:35;;;;;;;23.63;5.88;;;;;;;8.48;86.53;96703.72;5076027;28;20103;-77
2023/05/19 01:17:08;;;;;;;13.63;5.85;;;;;;;8.46;86.78;96700.53;5087372;28;20428;-79
2023/05/19 01:19:53;;;;;;;12.48;4.50;;;;;;;8.47;87.19;96702.13;5079460;28;20037;-77
2023/05/19 01:22:33;;;;;;;18.15;5.65;;;;;;;8.46;87.17;96710.56;5077578;28;20550;-77
2023/05/19 01:25:36;;;;;;;26.50;6.68;;;;;;;8.46;87.49;96700.53;5065736;28;20044;-76
2023/05/19 01:28:26;;;;;;;22.65;5.75;;;;;;;8.43;87.69;96700.28;5069519;28;20416;-78
2023/05/19 01:30:55;;;;;;;15.45;5.20;;;;;;;8.43;87.70;96703.00;5066949;28;20052;-77
2023/05/19 01:33:24;;;;;;;27.35;6.35;;;;;;;8.43;88.09;96701.09;5076818;28;20055;-76
2023/05/19 01:35:51;;;;;;;17.17;5.00;;;;;;;8.44;88.34;96705.41;5078126;28;20047;-76
2023/05/19 01:38:20;;;;;;;23.70;6.05;;;;;;;8.44;88.09;96708.13;5083814;28;20503;-76
2023/05/19 01:40:49;;;;;;;29.77;6.20;;;;;;;8.43;87.99;96701.09;5078345;28;20044;-77
2023/05/19 01:43:20;;;;;;;14.80;5.35;;;;;;;8.43;88.28;96711.16;5075379;28;20500;-77
2023/05/19 01:45:48;;;;;;;21.40;5.90;;;;;;;8.43;88.82;96709.25;5088082;28;20080;-79
2023/05/19 01:48:17;;;;;;;32.72;6.65;;;;;;;8.42;88.26;96710.34;5069786;28;20059;-76
2023/05/19 01:50:44;;;;;;;23.17;5.57;;;;;;;8.42;88.53;96706.84;5077804;28;20045;-77
2023/05/19 01:53:11;;;;;;;28.48;6.15;;;;;;;8.42;88.51;96707.63;5070808;28;20056;-76
2023/05/19 01:55:44;;;;;;;22.60;5.63;;;;;;;8.40;88.33;96712.53;5070608;28;20492;-77
2023/05/19 01:58:21;;;;;;;25.52;5.55;;;;;;;8.39;88.50;96710.13;5076628;28;20048;-77
2023/05/19 02:00:53;;;;;;;19.48;5.18;;;;;;;8.34;88.15;96706.34;5083779;28;20040;-76
2023/05/19 02:03:35;;;;;;;23.33;5.07;;;;;;;8.35;88.21;96709.88;5078527;28;20457;-76
2023/05/19 02:06:15;;;;;;;26.40;6.53;;;;;;;8.34;88.36;96703.63;5062888;28;20052;-77
2023/05/19 02:08:48;;;;;;;15.50;5.28;;;;;;;8.33;88.34;96701.22;5074271;28;20535;-77
2023/05/19 02:11:20;;;;;;;25.55;6.45;;;;;;;8.33;88.63;96701.22;5070324;28;20475;-77
2023/05/19 02:13:50;;;;;;;40.40;6.57;;;;;;;8.33;88.64;96701.22;5071217;28;20119;-77
2023/05/19 02:16:17;;;;;;;26.42;5.28;;;;;;;8.32;88.75;96705.03;5072431;28;20719;-77
2023/05/19 02:18:46;;;;;;;30.65;6.68;;;;;;;8.34;88.96;96705.53;5085237;28;20499;-77
2023/05/19 02:21:13;;;;;;;34.58;5.80;;;;;;;8.35;89.45;96699.00;5070728;28;20048;-77
2023/05/19 02:23:40;;;;;;;35.10;7.32;;;;;;;8.36;89.60;96700.69;5070593;28;20051;-77
2023/05/19 02:26:07;;;;;;;30.42;7.15;;;;;;;8.38;90.35;96698.47;5070070;28;20142;-77
2023/05/19 02:28:35;;;;;;;20.27;6.10;;;;;;;8.40;90.56;96704.38;5069092;28;20045;-76
2023/05/19 02:31:01;;;;;;;18.35;5.63;;;;;;;8.42;90.75;96696.78;5082662;28;20098;-79
2023/05/19 02:33:29;;;;;;;18.83;5.28;;;;;;;8.45;91.11;96698.88;5080486;28;20488;-76
2023/05/19 02:35:56;;;;;;;21.63;6.30;;;;;;;8.46;90.87;96700.53;5076295;28;20711;-76
2023/05/19 02:38:23;;;;;;;27.35;6.63;;;;;;;8.52;90.78;96696.63;5089603;28;20398;-77
2023/05/19 02:40:51;;;;;;;39.83;6.78;;;;;;;8.57;90.91;96695.72;5076343;28;20051;-76
2023/05/19 02:43:17;;;;;;;25.08;5.75;;;;;;;8.63;90.77;96694.53;5073996;28;20040;-77
2023/05/19 02:45:44;;;;;;;20.23;5.35;;;;;;;8.65;90.24;96691.53;5078312;28;20063;-76
2023/05/19 02:48:10;;;;;;;24.13;5.65;;;;;;;8.65;90.11;96686.09;5074872;28;20131;-76
2023/05/19 02:50:37;;;;;;;23.05;5.55;;;;;;;8.65;90.03;96683.38;5069612;28;20052;-76
2023/05/19 02:53:05;;;;;;;21.77;6.13;;;;;;;8.66;90.00;96687.69;5070424;28;20055;-77
2023/05/19 02:55:31;;;;;;;22.45;5.65;;;;;;;8.68;90.02;96685.50;5071846;28;20056;-76
2023/05/19 02:57:58;;;;;;;26.45;5.80;;;;;;;8.70;90.35;96683.28;5069884;28;20040;-76
2023/05/19 03:00:24;;;;;;;29.25;6.07;;;;;;;8.71;89.67;96676.75;5069063;28;20041;-76
2023/05/19 03:02:51;;;;;;;21.73;5.78;;;;;;;8.69;90.09;96681.69;5071564;28;20044;-76
2023/05/19 03:05:18;;;;;;;22.35;6.63;;;;;;;8.71;90.22;96685.69;5081171;28;20054;-76
2023/05/19 03:07:45;;;;;;;27.35;6.10;;;;;;;8.73;90.27;96683.50;5084406;28;20048;-78
2023/05/19 03:10:13;;;;;;;19.58;6.05;;;;;;;8.74;89.85;96674.25;5084022;28;20045;-76
2023/05/19 03:12:39;;;;;;;23.92;6.53;;;;;;;8.75;89.29;96685.91;5073101;28;20040;-77
2023/05/19 03:15:07;;;;;;;21.58;6.40;;;;;;;8.76;89.23;96682.09;5072327;28;20131;-76
2023/05/19 03:17:35;;;;;;;22.05;6.07;;;;;;;8.76;89.33;96690.25;5072997;28;20045;-76
2023/05/19 03:20:01;;;;;;;24.20;5.75;;;;;;;8.77;89.53;96683.69;5080883;28;20051;-78
2023/05/19 03:22:28;;;;;;;22.27;7.00;;;;;;;8.78;89.50;96680.72;5072939;28;20531;-78
2023/05/19 03:24:54;;;;;;;31.17;6.32;;;;;;;8.79;89.50;96686.94;5072182;28;20053;-77
2023/05/19 03:27:24;;;;;;;18.02;5.47;;;;;;;8.81;89.63;96690.16;5072605;28;20047;-76
2023/05/19 03:29:51;;;;;;;29.98;5.78;;;;;;;8.83;89.73;96685.25;5080424;28;20040;-76
2023/05/19 03:32:18;;;;;;;25.58;6.60;;;;;;;8.86;90.18;96681.91;5071473;28;20068;-75
2023/05/19 03:34:44;;;;;;;21.48;6.38;;;;;;;8.87;90.32;96684.34;5085053;28;20051;-76
2023/05/19 03:37:11;;;;;;;34.00;6.60;;;;;;;8.90;90.76;96680.22;5092324;28;20503;-76
2023/05/19 03:39:38;;;;;;;11.45;5.43;;;;;;;8.95;91.01;96684.75;5077332;28;20064;-76
2023/05/19 03:42:05;;;;;;;30.60;6.65;;;;;;;8.97;90.66;96683.34;5071069;28;20045;-76
2023/05/19 03:44:32;;;;;;;30.45;6.35;;;;;;;8.99;90.24;96681.16;5081009;28;20047;-76
2023/05/19 03:46:59;;;;;;;24.80;5.57;;;;;;;9.00;90.54;96671.88;5084290;28;20051;-76
2023/05/19 03:49:25;;;;;;;31.88;6.35;;;;;;;9.06;90.66;96678.03;5071501;28;20409;-76
2023/05/19 03:51:52;;;;;;;19.17;6.38;;;;;;;9.09;90.37;96680.16;5074569;28;20048;-76
2023/05/19 03:54:19;;;;;;;13.32;5.63;;;;;;;9.11;90.58;96676.03;5071785;28;20060;-77
2023/05/19 03:56:46;;;;;;;31.38;7.32;;;;;;;9.10;91.08;96674.41;5082218;28;20040;-76
2023/05/19 03:59:12;;;;;;;21.00;6.85;;;;;;;9.12;91.11;96676.81;5088951;28;20384;-76
2023/05/19 04:01:40;;;;;;;12.20;5.38;;;;;;;9.17;90.80;96678.66;5080157;28;20403;-76
2023/05/19 04:04:07;;;;;;;14.02;6.00;;;;;;;9.22;90.37;96682.06;5075650;28;20056;-76
2023/05/19 04:06:35;;;;;;;12.48;5.55;;;;;;;9.25;90.63;96677.97;5086653;28;20044;-76
2023/05/19 04:09:02;;;;;;;10.32;5.20;;;;;;;9.30;90.22;96677.88;5080220;28;20044;-76
2023/05/19 04:11:28;;;;;;;12.85;5.72;;;;;;;9.32;90.29;96678.34;5086486;28;20663;-77
2023/05/19 04:13:55;;;;;;;15.18;5.60;;;;;;;9.29;89.73;96676.22;5071669;28;20056;-76
2023/05/19 04:16:21;;;;;;;12.90;5.53;;;;;;;9.38;89.63;96677.13;5077745;28;20087;-77
2023/05/19 04:18:49;;;;;;;13.90;6.20;;;;;;;9.43;89.77;96678.97;5076357;28;20049;-76
2023/05/19 04:21:16;;;;;;;26.50;16.65;;;;;;;9.38;88.93;96680.66;5076198;28;20053;-76
2023/05/19 04:23:42;;;;;;;12.80;5.80;;;;;;;9.43;88.37;96685.19;5072258;28;20478;-77
2023/05/19 04:26:09;;;;;;;11.65;5.55;;;;;;;9.54;88.14;96681.16;5072712;28;20047;-76
2023/05/19 04:28:38;;;;;;;9.43;5.60;;;;;;;9.57;88.12;96688.72;5071224;28;20131;-76
2023/05/19 04:31:09;;;;;;;10.60;5.32;;;;;;;9.60;88.45;96682.66;5073903;28;20044;-76
2023/05/19 04:33:36;;;;;;;10.35;5.03;;;;;;;9.68;88.15;96684.69;5074682;28;20052;-76
2023/05/19 04:36:07;;;;;;;13.07;6.00;;;;;;;9.68;88.16;96686.59;5062341;28;20056;-76
2023/05/19 04:38:33;;;;;;;14.75;7.03;;;;;;;9.54;87.65;96683.88;5071284;28;20055;-77
2023/05/19 04:41:00;;;;;;;13.10;6.35;;;;;;;9.65;86.72;96677.13;5071105;28;20048;-77
2023/05/19 04:43:27;;;;;;;11.05;5.90;;;;;;;9.75;86.62;96672.59;5071481;28;20458;-77
2023/05/19 04:45:54;;;;;;;14.10;6.78;;;;;;;9.75;86.96;96678.81;5077763;28;20055;-77
2023/05/19 04:48:21;;;;;;;16.42;6.13;;;;;;;9.73;86.94;96674.81;5091247;28;20277;-77
2023/05/19 04:50:48;;;;;;;15.82;7.15;;;;;;;9.67;87.82;96674.13;5073780;28;20049;-77
2023/05/19 04:53:16;;;;;;;15.95;6.55;;;;;;;9.56;87.00;96673.53;5077792;28;20044;-77
2023/05/19 04:55:43;;;;;;;12.20;6.75;;;;;;;9.57;88.14;96677.84;5073145;28;20040;-77
2023/05/19 04:58:09;;;;;;;11.25;6.35;;;;;;;9.66;87.73;96676.03;5090642;28;20044;-77
2023/05/19 05:00:37;;;;;;;10.80;6.32;;;;;;;9.75;86.85;96673.38;5082348;28;20044;-77
2023/05/19 05:03:03;;;;;;;16.48;6.38;;;;;;;9.72;87.10;96681.38;5071189;28;20413;-77
2023/05/19 05:05:30;;;;;;;15.05;6.32;;;;;;;9.67;86.72;96672.19;5071394;28;20047;-77
2023/05/19 05:07:57;;;;;;;12.77;6.97;;;;;;;9.62;87.97;96675.03;5081829;28;20671;-77
2023/05/19 05:10:25;;;;;;;15.93;6.40;;;;;;;9.71;87.00;96674.28;5070719;28;20123;-77
2023/05/19 05:12:52;;;;;;;15.27;7.40;;;;;;;9.79;87.33;96665.44;5071543;28;20043;-77
2023/05/19 05:15:20;;;;;;;19.55;7.38;;;;;;;9.73;87.02;96672.91;5071037;28;20061;-77
2023/05/19 05:17:47;;;;;;;15.05;7.43;;;;;;;9.90;86.83;96666.81;5069740;28;20496;-77
2023/05/19 05:20:14;;;;;;;16.80;6.70;;;;;;;9.79;86.65;96665.44;5078888;28;20066;-77
2023/05/19 05:22:41;;;;;;;14.43;7.10;;;;;;;9.77;86.14;96662.22;5070363;28;20500;-78
2023/05/19 05:25:11;;;;;;;12.13;7.00;;;;;;;9.76;86.01;96661.41;5074571;28;20050;-77
2023/05/19 05:27:39;;;;;;;11.80;6.38;;;;;;;9.90;85.92;96653.22;5084362;28;20049;-77
2023/05/19 05:30:06;;;;;;;14.57;6.82;;;;;;;9.93;84.88;96649.91;5076440;28;20048;-75
2023/05/19 05:32:33;;;;;;;19.23;6.97;;;;;;;9.98;85.18;96649.78;5074018;28;20051;-76
2023/05/19 05:35:00;;;;;;;13.60;6.72;;;;;;;9.78;85.56;96642.88;5068027;28;20048;-77
2023/05/19 05:37:26;;;;;;;15.88;7.82;;;;;;;9.82;85.03;96641.16;5068459;28;20411;-77
2023/05/19 05:39:53;;;;;;;20.58;7.53;;;;;;;9.84;85.26;96640.84;5076666;28;20051;-75
2023/05/19 05:42:20;;;;;;;11.77;7.32;;;;;;;9.84;84.46;96640.84;5077113;28;20060;-78
2023/05/19 05:44:47;;;;;;;15.95;7.20;;;;;;;9.92;86.35;96645.56;5068730;28;20462;-78
2023/05/19 05:47:15;;;;;;;13.55;7.53;;;;;;;9.97;85.70;96650.91;5073660;28;20055;-78
2023/05/19 05:49:46;;;;;;;13.55;7.65;;;;;;;9.94;85.97;96652.28;5081348;28;20048;-79
2023/05/19 05:52:15;;;;;;;17.20;7.88;;;;;;;9.90;84.40;96651.28;5089748;28;20120;-78
2023/05/19 05:54:42;;;;;;;21.40;8.07;;;;;;;9.87;83.90;96656.56;5077961;28;20048;-78
2023/05/19 05:57:11;;;;;;;27.13;9.48;;;;;;;9.86;84.70;96663.09;5070489;28;20135;-76
2023/05/19 05:59:39;;;;;;;37.05;10.45;;;;;;;9.90;85.01;96656.75;5083564;28;20040;-76
2023/05/19 06:02:07;;;;;;;15.48;8.38;;;;;;;9.89;83.14;96657.06;5083963;28;20076;-76
2023/05/19 06:04:33;;;;;;;19.70;10.52;;;;;;;10.04;83.91;96656.72;5068107;28;20059;-77
2023/05/19 06:07:00;;;;;;;11.77;7.97;;;;;;;10.03;82.90;96652.38;5067928;28;20049;-76
2023/05/19 06:09:28;;;;;;;15.60;8.20;;;;;;;10.03;82.43;96649.66;5075731;28;20496;-76
2023/05/19 06:11:55;;;;;;;15.43;7.43;;;;;;;10.03;83.13;96654.31;5080317;28;20114;-75
2023/05/19 06:14:21;;;;;;;21.05;8.43;;;;;;;10.07;81.96;96656.09;5073922;28;20033;-75
2023/05/19 06:16:47;;;;;;;19.23;9.25;;;;;;;9.99;82.97;96658.75;5072782;28;20036;-78
2023/05/19 06:19:15;;;;;;;20.08;9.10;;;;;;;10.06;82.60;96654.47;5073154;28;20049;-77
2023/05/19 06:21:42;;;;;;;14.70;8.07;;;;;;;10.25;83.78;96661.72;5072149;28;20040;-76
2023/05/19 06:24:09;;;;;;;16.67;7.80;;;;;;;10.38;82.78;96666.28;5066803;28;20098;-76
2023/05/19 06:26:35;;;;;;;10.35;6.40;;;;;;;10.46;80.67;96660.13;5079445;28;20223;-77
2023/05/19 06:29:02;;;;;;;14.45;7.55;;;;;;;10.55;80.45;96660.19;5070247;28;20048;-78
2023/05/19 06:31:30;;;;;;;14.05;7.50;;;;;;;10.60;80.57;96663.59;5071092;28;20051;-77
2023/05/19 06:33:56;;;;;;;15.82;8.45;;;;;;;10.65;79.80;96663.47;5076381;28;20060;-76
2023/05/19 06:36:25;;;;;;;20.33;8.23;;;;;;;10.64;78.36;96669.19;5069271;28;20116;-76
2023/05/19 06:38:51;;;;;;;15.27;8.70;;;;;;;10.83;78.91;96666.28;5085851;28;20047;-76
2023/05/19 06:41:18;;;;;;;15.23;8.20;;;;;;;10.93;77.90;96666.81;5083405;28;20036;-77
2023/05/19 06:43:44;;;;;;;16.45;7.18;;;;;;;10.91;78.60;96668.22;5074377;28;20178;-77
2023/05/19 06:46:11;;;;;;;15.48;7.07;;;;;;;11.00;77.97;96663.63;5073619;28;20037;-76
2023/05/19 06:48:38;;;;;;;16.63;7.90;;;;;;;10.99;78.33;96672.94;5074641;28;20071;-77
2023/05/19 06:51:05;;;;;;;16.58;7.68;;;;;;;11.09;79.57;96671.88;5076027;28;20062;-78
2023/05/19 06:53:33;;;;;;;16.73;7.50;;;;;;;11.15;79.97;96660.50;5077561;28;20040;-78
2023/05/19 06:56:00;;;;;;;12.73;6.75;;;;;;;11.24;77.90;96660.56;5075935;28;20055;-76
2023/05/19 06:58:26;;;;;;;11.65;7.30;;;;;;;11.15;75.35;96674.13;5074497;28;20067;-76
2023/05/19 07:00:53;;;;;;;17.45;8.10;;;;;;;11.20;75.33;96668.56;5074931;28;20082;-76
2023/05/19 07:03:19;;;;;;;18.75;7.60;;;;;;;11.17;74.24;96666.47;5074898;28;20044;-77
2023/05/19 07:05:46;;;;;;;10.48;6.32;;;;;;;11.21;74.86;96661.16;5074611;28;20048;-76
2023/05/19 07:08:13;;;;;;;10.57;6.65;;;;;;;11.11;71.75;96666.91;5074712;28;20044;-76
2023/05/19 07:10:41;;;;;;;13.80;7.22;;;;;;;11.21;73.33;96658.44;5076157;28;20125;-77
2023/05/19 07:13:07;;;;;;;11.98;6.25;;;;;;;11.26;72.13;96660.22;5073897;28;20128;-77
2023/05/19 07:15:34;;;;;;;11.68;6.50;;;;;;;11.42;73.33;96661.41;5072922;28;20047;-77
2023/05/19 07:18:00;;;;;;;13.23;6.40;;;;;;;11.42;71.80;96658.69;5092192;28;20040;-77
2023/05/19 07:20:27;;;;;;;12.98;6.00;;;;;;;11.39;69.32;96662.06;5080627;28;20412;-76
2023/05/19 07:22:53;;;;;;;14.48;6.45;;;;;;;11.55;71.89;96659.72;5072365;28;20041;-76
2023/05/19 07:25:20;;;;;;;10.75;6.30;;;;;;;11.64;68.59;96653.16;5072789;28;20049;-77
2023/05/19 07:27:48;;;;;;;13.98;6.32;;;;;;;11.71;69.01;96658.94;5072986;28;20045;-77
2023/05/19 07:30:14;;;;;;;10.45;5.90;;;;;;;11.76;69.17;96661.53;5072368;28;20036;-77
2023/05/19 07:32:40;;;;;;;10.18;5.90;;;;;;;11.72;68.45;96655.09;5074752;28;20036;-76
2023/05/19 07:35:07;;;;;;;13.00;6.00;;;;;;;11.62;69.22;96649.94;5071940;28;20052;-77
2023/05/19 07:37:34;;;;;;;11.10;6.00;;;;;;;11.72;70.84;96652.34;5072797;28;20048;-76
2023/05/19 07:40:01;;;;;;;8.38;6.13;;;;;;;11.77;71.04;96652.22;5073164;28;20105;-76
2023/05/19 07:42:28;;;;;;;9.00;5.90;;;;;;;11.76;69.61;96656.06;5072371;28;20127;-77
2023/05/19 07:44:55;;;;;;;10.75;6.45;;;;;;;11.72;68.80;96649.63;5071267;28;20043;-77
2023/05/19 07:47:22;;;;;;;11.48;6.20;;;;;;;11.70;68.86;96651.09;5079209;28;20053;-77
2023/05/19 07:49:48;;;;;;;9.55;5.57;;;;;;;11.56;69.04;96655.84;5072348;28;20396;-79
2023/05/19 07:52:17;;;;;;;11.40;7.35;;;;;;;11.69;70.34;96658.47;5075356;28;20040;-76
2023/05/19 07:54:43;;;;;;;16.45;6.60;;;;;;;11.76;72.28;96656.06;5084133;28;20128;-77
2023/05/19 07:57:10;;;;;;;11.07;5.82;;;;;;;11.87;71.08;96650.34;5071935;28;20550;-78
2023/05/19 07:59:36;;;;;;;8.35;5.82;;;;;;;11.63;68.16;96656.97;5088361;28;20450;-76
2023/05/19 08:02:05;;;;;;;10.63;6.13;;;;;;;11.68;69.00;96659.56;5072603;28;20045;-78
2023/05/19 08:04:31;;;;;;;11.93;5.55;;;;;;;11.58;68.92;96653.59;5079018;28;20048;-77
2023/05/19 08:06:58;;;;;;;13.35;6.85;;;;;;;11.56;69.75;96655.84;5091132;28;20044;-76
2023/05/19 08:09:25;;;;;;;194.60;50.80;;;;;;;11.55;74.25;96649.59;5072714;28;20044;-77
2023/05/19 08:11:51;;;;;;;14.95;7.53;;;;;;;11.58;70.08;96659.06;5081972;28;20040;-77
2023/05/19 08:14:18;;;;;;;13.13;7.55;;;;;;;11.57;71.65;96662.91;5074396;28;20044;-76
2023/05/19 08:16:45;;;;;;;12.95;6.00;;;;;;;11.51;71.01;96659.53;5071433;28;20040;-77
2023/05/19 08:19:13;;;;;;;12.82;6.85;;;;;;;11.43;71.38;96663.00;5072147;28;20041;-77
2023/05/19 08:21:41;;;;;;;11.55;6.22;;;;;;;11.43;70.45;96669.31;5072530;28;20036;-77
2023/05/19 08:24:07;;;;;;;16.90;7.90;;;;;;;11.38;71.10;96654.97;5070674;28;20536;-77
2023/05/19 08:26:34;;;;;;;10.23;6.47;;;;;;;11.37;70.86;96647.94;5073298;28;20491;-77
2023/05/19 08:29:00;;;;;;;10.95;6.60;;;;;;;11.39;69.46;96648.44;5072129;28;20044;-77
2023/05/19 08:31:27;;;;;;;11.85;6.43;;;;;;;11.31;70.44;96643.72;5072731;28;20504;-76
2023/05/19 08:33:53;;;;;;;9.40;6.32;;;;;;;11.37;71.80;96648.72;5072758;28;20492;-76
2023/05/19 08:36:21;;;;;;;13.00;6.93;;;;;;;11.45;71.01;96656.13;5071622;28;20048;-76
2023/05/19 08:38:48;;;;;;;12.10;6.00;;;;;;;11.20;70.03;96663.09;5072365;28;20044;-77
2023/05/19 08:41:15;;;;;;;10.43;6.18;;;;;;;11.12;71.58;96668.50;5071886;28;20049;-76
2023/05/19 08:43:42;;;;;;;11.65;6.80;;;;;;;11.05;71.60;96663.50;5074895;28;20040;-77
2023/05/19 08:46:15;;;;;;;11.10;6.25;;;;;;;11.06;71.40;96665.09;5074043;28;20044;-77
2023/05/19 08:48:43;;;;;;;14.27;7.00;;;;;;;11.15;71.29;96663.25;5077217;28;20051;-77
2023/05/19 08:51:20;;;;;;;12.98;6.80;;;;;;;11.04;71.44;96664.63;5071542;28;20547;-76
2023/05/19 08:53:50;;;;;;;11.77;6.70;;;;;;;11.17;72.42;96660.19;5071434;28;20048;-76
2023/05/19 08:56:21;;;;;;;10.63;6.10;;;;;;;11.06;70.83;96654.22;5083154;28;20044;-76
2023/05/19 08:58:49;;;;;;;11.40;6.30;;;;;;;11.13;70.93;96654.59;5071079;28;20041;-77
2023/05/19 09:01:17;;;;;;;9.82;6.13;;;;;;;11.31;72.50;96660.09;5070355;28;20044;-77
2023/05/19 09:03:44;;;;;;;10.38;5.80;;;;;;;11.20;70.66;96659.56;5070544;28;20048;-76
2023/05/19 09:06:13;;;;;;;10.35;6.05;;;;;;;11.32;71.92;96658.97;5090377;28;20051;-76
2023/05/19 09:08:40;;;;;;;10.38;6.43;;;;;;;11.50;73.59;96661.44;5091534;28;20109;-76
2023/05/19 09:11:09;;;;;;;9.77;6.38;;;;;;;11.52;72.56;96658.41;5071770;28;20044;-77
2023/05/19 09:13:35;;;;;;;10.15;6.57;;;;;;;11.31;71.94;96657.38;5075768;28;20051;-76
2023/05/19 09:16:03;;;;;;;11.32;6.50;;;;;;;11.46;72.07;96656.94;5084144;28;20059;-79
2023/05/19 09:18:30;;;;;;;10.30;6.72;;;;;;;11.61;73.93;96653.78;5074814;28;20044;-77
2023/05/19 09:20:59;;;;;;;10.65;6.50;;;;;;;11.45;69.34;96655.34;5070578;28;20068;-76
2023/05/19 09:23:27;;;;;;;8.57;6.57;;;;;;;11.58;70.91;96648.16;5069917;28;20053;-79
2023/05/19 09:25:54;;;;;;;10.00;6.10;;;;;;;11.56;70.90;96650.41;5070934;28;20068;-76
2023/05/19 09:28:26;;;;;;;10.20;6.07;;;;;;;11.62;71.55;96660.03;5067818;28;20520;-75
2023/05/19 09:31:03;;;;;;;9.70;6.70;;;;;;;11.59;70.50;96656.03;5066746;28;20385;-78
2023/05/19 09:33:32;;;;;;;9.90;6.53;;;;;;;11.60;71.88;96657.63;5063619;28;20061;-76
2023/05/19 09:35:59;;;;;;;12.40;7.30;;;;;;;11.42;71.27;96655.97;5078458;28;20043;-76
2023/05/19 09:38:25;;;;;;;12.80;8.23;;;;;;;11.54;71.41;96664.38;5063656;28;20044;-77
2023/05/19 09:40:52;;;;;;;12.95;7.72;;;;;;;11.62;72.53;96655.38;5072629;28;20036;-76
2023/05/19 09:43:18;;;;;;;11.60;7.40;;;;;;;11.58;72.49;96654.41;5071137;28;20041;-76
2023/05/19 09:45:47;;;;;;;11.70;7.30;;;;;;;11.62;71.94;96649.94;5069848;28;20044;-76
2023/05/19 09:48:14;;;;;;;9.38;6.95;;;;;;;11.58;71.70;96646.22;5073233;28;20048;-77
2023/05/19 09:50:42;;;;;;;11.40;6.93;;;;;;;11.73;71.55;96645.78;5076072;28;20040;-76
2023/05/19 09:53:12;;;;;;;12.15;7.60;;;;;;;11.67;71.73;96647.06;5070067;28;20524;-76
2023/05/19 09:55:40;;;;;;;10.07;7.07;;;;;;;11.60;71.45;96648.66;5070813;28;20037;-78
2023/05/19 09:58:07;;;;;;;13.65;7.88;;;;;;;11.61;70.88;96642.06;5069857;28;20573;-76
2023/05/19 10:00:34;;;;;;;10.65;7.63;;;;;;;11.66;70.93;96650.91;5070527;28;20041;-76
2023/05/19 10:03:04;;;;;;;12.45;7.55;;;;;;;11.71;70.89;96642.56;5070425;28;20037;-75
2023/05/19 10:05:33;;;;;;;12.75;7.70;;;;;;;11.71;70.39;96637.13;5070649;28;20040;-78
2023/05/19 10:08:00;;;;;;;11.00;7.38;;;;;;;11.61;71.54;96634.69;5071150;28;20075;-76
2023/05/19 10:10:28;;;;;;;12.60;7.78;;;;;;;11.59;71.59;96627.94;5082102;28;20043;-76
2023/05/19 10:12:55;;;;;;;13.75;8.38;;;;;;;11.64;72.46;96631.34;5070012;28;20044;-78
2023/05/19 10:15:22;;;;;;;18.15;9.55;;;;;;;11.67;72.95;96635.34;5060735;28;20075;-76
2023/05/19 10:17:50;;;;;;;19.80;12.27;;;;;;;11.78;72.30;96631.19;5082620;28;20039;-76
2023/05/19 10:20:18;;;;;;;16.33;8.23;;;;;;;11.46;71.13;96632.41;5068910;28;20045;-78
2023/05/19 10:22:45;;;;;;;10.45;7.45;;;;;;;11.56;71.19;96634.03;5069787;28;20048;-76
2023/05/19 10:25:13;;;;;;;12.63;7.82;;;;;;;11.45;71.95;96633.53;5068846;28;20052;-75
2023/05/19 10:27:44;;;;;;;14.60;8.48;;;;;;;11.46;72.61;96635.13;5069958;28;20041;-76
2023/05/19 10:30:15;;;;;;;15.43;9.00;;;;;;;11.37;70.72;96626.91;5069216;28;20443;-75
2023/05/19 10:32:43;;;;;;;12.30;8.55;;;;;;;11.40;71.81;96630.94;5069838;28;20546;-76
2023/05/19 10:35:24;;;;;;;13.98;8.57;;;;;;;11.56;72.75;96632.09;5069644;28;20435;-75
2023/05/19 10:37:58;;;;;;;13.77;8.30;;;;;;;11.34;72.04;96626.75;5069962;28;20642;-77
2023/05/19 10:40:28;;;;;;;13.40;8.75;;;;;;;11.51;71.23;96624.06;5062941;28;20044;-76
2023/05/19 10:43:13;;;;;;;17.35;11.18;;;;;;;11.64;72.99;96630.50;5071238;28;20041;-78
2023/05/19 10:45:47;;;;;;;18.02;9.05;;;;;;;11.50;71.47;96625.19;5070847;28;20041;-77
2023/05/19 10:48:15;;;;;;;12.95;8.10;;;;;;;11.66;72.47;96623.63;5070694;28;20045;-76
2023/05/19 10:50:45;;;;;;;15.10;9.45;;;;;;;11.83;72.57;96619.34;5070764;28;20044;-77
2023/05/19 10:53:17;;;;;;;13.52;8.50;;;;;;;12.06;72.11;96626.28;5052072;28;20516;-76
2023/05/19 10:55:54;;;;;;;11.15;8.25;;;;;;;12.15;70.89;96618.88;5076387;28;20078;-76
2023/05/19 10:58:49;;;;;;;11.15;7.72;;;;;;;12.05;70.12;96623.84;5071497;28;20117;-77
2023/05/19 11:01:17;;;;;;;12.73;8.90;;;;;;;12.14;71.25;96619.22;5069136;28;20051;-77
2023/05/19 11:03:48;;;;;;;14.73;9.27;;;;;;;12.05;70.41;96619.19;5070671;28;20036;-78
2023/05/19 11:06:26;;;;;;;13.38;8.32;;;;;;;12.05;70.66;96615.66;5069499;28;20043;-78
2023/05/19 11:08:54;;;;;;;18.92;8.65;;;;;;;12.12;70.89;96605.88;5070730;28;20044;-77
2023/05/19 11:11:21;;;;;;;15.00;9.25;;;;;;;12.00;71.92;96611.16;5078059;28;20037;-78
2023/05/19 11:13:50;;;;;;;16.10;9.52;;;;;;;12.01;71.89;96612.78;5070971;28;20072;-77
2023/05/19 11:16:19;;;;;;;13.10;8.85;;;;;;;12.11;71.10;96601.56;5072444;28;20044;-77
2023/05/19 11:18:48;;;;;;;13.55;9.07;;;;;;;12.10;70.04;96594.47;5077070;28;20044;-77
2023/05/19 11:21:14;;;;;;;16.15;8.45;;;;;;;12.22;70.46;96597.38;5070064;28;20056;-77
2023/05/19 11:23:42;;;;;;;14.63;8.77;;;;;;;12.38;71.14;96599.59;5077097;28;20051;-78
2023/05/19 11:26:12;;;;;;;16.52;9.32;;;;;;;12.53;70.68;96596.38;5084499;28;20040;-78
2023/05/19 11:28:40;;;;;;;12.63;9.20;;;;;;;12.51;70.67;96602.13;5092472;28;20127;-77
2023/05/19 11:31:09;;;;;;;21.77;8.73;;;;;;;12.50;69.65;96614.19;5074903;28;20135;-77
2023/05/19 11:33:36;;;;;;;12.70;9.30;;;;;;;12.44;70.32;96603.78;5079511;28;20040;-78